sensor_id;sensor_type;location;lat;lon;timestamp;temperature;humidity
55771;DHT22;41687;-33.234;-60.334;2023-05-07T00:00:23;16.00;99.90
55771;DHT22;41687;-33.234;-60.334;2023-05-07T00:02:51;16.10;99.90
55771;DHT22;41687;-33.234;-60.334;2023-05-07T00:05:19;16.00;99.90
55771;DHT22;41687;-33.234;-60.334;2023-05-07T00:07:47;16.00;99.90
55771;DHT22;41687;-33.234;-60.334;2023-05-07T00:10:14;16.00;99.90
55771;DHT22;41687;-33.234;-60.334;2023-05-07T00:12:42;16.00;99.90
55771;DHT22;41687;-33.234;-60.334;2023-05-07T00:15:10;16.00;99.90
55771;DHT22;41687;-33.234;-60.334;2023-05-07T00:17:38;16.10;99.90
55771;DHT22;41687;-33.234;-60.334;2023-05-07T00:20:06;16.00;99.90
55771;DHT22;41687;-33.234;-60.334;2023-05-07T00:22:34;16.00;99.90
55771;DHT22;41687;-33.234;-60.334;2023-05-07T00:25:01;16.00;99.90
55771;DHT22;41687;-33.234;-60.334;2023-05-07T00:27:30;16.00;99.90
55771;DHT22;41687;-33.234;-60.334;2023-05-07T00:29:57;16.00;99.90
55771;DHT22;41687;-33.234;-60.334;2023-05-07T00:32:25;16.00;99.90
55771;DHT22;41687;-33.234;-60.334;2023-05-07T00:34:52;16.00;99.90
55771;DHT22;41687;-33.234;-60.334;2023-05-07T00:37:20;16.00;99.90
55771;DHT22;41687;-33.234;-60.334;2023-05-07T00:39:47;16.00;99.90
55771;DHT22;41687;-33.234;-60.334;2023-05-07T00:42:15;16.00;99.90
55771;DHT22;41687;-33.234;-60.334;2023-05-07T00:44:43;16.00;99.90
55771;DHT22;41687;-33.234;-60.334;2023-05-07T00:47:10;16.00;99.90
55771;DHT22;41687;-33.234;-60.334;2023-05-07T00:49:40;16.00;99.90
55771;DHT22;41687;-33.234;-60.334;2023-05-07T00:52:14;16.00;99.90
55771;DHT22;41687;-33.234;-60.334;2023-05-07T00:54:43;16.00;99.90
55771;DHT22;41687;-33.234;-60.334;2023-05-07T00:57:10;16.00;99.90
55771;DHT22;41687;-33.234;-60.334;2023-05-07T00:59:41;15.90;99.90
55771;DHT22;41687;-33.234;-60.334;2023-05-07T01:02:09;15.80;99.90
55771;DHT22;41687;-33.234;-60.334;2023-05-07T01:04:37;15.80;99.90
55771;DHT22;41687;-33.234;-60.334;2023-05-07T01:07:05;15.80;99.90
55771;DHT22;41687;-33.234;-60.334;2023-05-07T01:09:33;15.80;99.90
55771;DHT22;41687;-33.234;-60.334;2023-05-07T01:12:02;15.80;99.90
55771;DHT22;41687;-33.234;-60.334;2023-05-07T01:14:30;15.80;99.90
55771;DHT22;41687;-33.234;-60.334;2023-05-07T01:17:00;15.80;99.90
55771;DHT22;41687;-33.234;-60.334;2023-05-07T01:19:29;15.80;99.90
55771;DHT22;41687;-33.234;-60.334;2023-05-07T01:22:02;15.70;99.90
55771;DHT22;41687;-33.234;-60.334;2023-05-07T01:24:37;15.80;99.90
55771;DHT22;41687;-33.234;-60.334;2023-05-07T01:27:07;15.70;99.90
55771;DHT22;41687;-33.234;-60.334;2023-05-07T01:29:36;15.70;99.90
55771;DHT22;41687;-33.234;-60.334;2023-05-07T01:32:05;15.70;99.90
55771;DHT22;41687;-33.234;-60.334;2023-05-07T01:34:36;15.70;99.90
55771;DHT22;41687;-33.234;-60.334;2023-05-07T01:37:05;15.70;99.90
55771;DHT22;41687;-33.234;-60.334;2023-05-07T01:39:32;15.70;99.90
55771;DHT22;41687;-33.234;-60.334;2023-05-07T01:42:00;15.70;99.90
55771;DHT22;41687;-33.234;-60.334;2023-05-07T01:44:28;15.70;99.90
55771;DHT22;41687;-33.234;-60.334;2023-05-07T01:46:57;15.70;99.90
55771;DHT22;41687;-33.234;-60.334;2023-05-07T01:49:26;15.70;99.90
55771;DHT22;41687;-33.234;-60.334;2023-05-07T01:51:54;15.70;99.90
55771;DHT22;41687;-33.234;-60.334;2023-05-07T01:54:28;15.70;99.90
55771;DHT22;41687;-33.234;-60.334;2023-05-07T01:56:57;15.70;99.90
55771;DHT22;41687;-33.234;-60.334;2023-05-07T01:59:25;15.70;99.90
55771;DHT22;41687;-33.234;-60.334;2023-05-07T02:01:53;15.70;99.90
55771;DHT22;41687;-33.234;-60.334;2023-05-07T02:04:20;15.70;99.90
55771;DHT22;41687;-33.234;-60.334;2023-05-07T02:06:48;15.70;99.90
55771;DHT22;41687;-33.234;-60.334;2023-05-07T02:09:16;15.70;99.90
55771;DHT22;41687;-33.234;-60.334;2023-05-07T02:11:45;15.70;99.90
55771;DHT22;41687;-33.234;-60.334;2023-05-07T02:14:13;15.70;99.90
55771;DHT22;41687;-33.234;-60.334;2023-05-07T02:16:42;15.70;99.90
55771;DHT22;41687;-33.234;-60.334;2023-05-07T02:19:11;15.70;99.90
55771;DHT22;41687;-33.234;-60.334;2023-05-07T02:21:39;15.70;99.90
55771;DHT22;41687;-33.234;-60.334;2023-05-07T02:24:06;15.70;99.90
55771;DHT22;41687;-33.234;-60.334;2023-05-07T02:26:34;15.70;99.90
55771;DHT22;41687;-33.234;-60.334;2023-05-07T02:29:02;15.70;99.90
55771;DHT22;41687;-33.234;-60.334;2023-05-07T02:31:31;15.70;99.90
55771;DHT22;41687;-33.234;-60.334;2023-05-07T02:34:01;15.70;99.90
55771;DHT22;41687;-33.234;-60.334;2023-05-07T02:36:28;15.70;99.90
55771;DHT22;41687;-33.234;-60.334;2023-05-07T02:39:10;15.70;99.90
55771;DHT22;41687;-33.234;-60.334;2023-05-07T02:41:38;15.70;99.90
55771;DHT22;41687;-33.234;-60.334;2023-05-07T02:44:05;15.70;99.90
55771;DHT22;41687;-33.234;-60.334;2023-05-07T02:46:34;15.70;99.90
55771;DHT22;41687;-33.234;-60.334;2023-05-07T02:49:06;15.70;99.90
55771;DHT22;41687;-33.234;-60.334;2023-05-07T02:51:34;15.70;99.90
55771;DHT22;41687;-33.234;-60.334;2023-05-07T02:54:05;15.70;99.90
55771;DHT22;41687;-33.234;-60.334;2023-05-07T02:56:33;15.70;99.90
55771;DHT22;41687;-33.234;-60.334;2023-05-07T02:59:01;15.70;99.90
55771;DHT22;41687;-33.234;-60.334;2023-05-07T03:01:33;15.70;99.90
55771;DHT22;41687;-33.234;-60.334;2023-05-07T03:04:09;15.70;99.90
55771;DHT22;41687;-33.234;-60.334;2023-05-07T03:06:37;15.70;99.90
55771;DHT22;41687;-33.234;-60.334;2023-05-07T03:09:05;15.70;99.90
55771;DHT22;41687;-33.234;-60.334;2023-05-07T03:11:33;15.70;99.90
55771;DHT22;41687;-33.234;-60.334;2023-05-07T03:14:02;15.70;99.90
55771;DHT22;41687;-33.234;-60.334;2023-05-07T03:16:30;15.70;99.90
55771;DHT22;41687;-33.234;-60.334;2023-05-07T03:18:58;15.60;99.90
55771;DHT22;41687;-33.234;-60.334;2023-05-07T03:21:26;15.60;99.90
55771;DHT22;41687;-33.234;-60.334;2023-05-07T03:23:54;15.60;99.90
55771;DHT22;41687;-33.234;-60.334;2023-05-07T03:26:22;15.60;99.90
55771;DHT22;41687;-33.234;-60.334;2023-05-07T03:28:50;15.60;99.90
55771;DHT22;41687;-33.234;-60.334;2023-05-07T03:31:18;15.60;99.90
55771;DHT22;41687;-33.234;-60.334;2023-05-07T03:33:57;15.60;99.90
55771;DHT22;41687;-33.234;-60.334;2023-05-07T03:36:26;15.60;99.90
55771;DHT22;41687;-33.234;-60.334;2023-05-07T03:38:55;15.50;99.90
55771;DHT22;41687;-33.234;-60.334;2023-05-07T03:41:25;15.50;99.90
55771;DHT22;41687;-33.234;-60.334;2023-05-07T03:43:53;15.50;99.90
55771;DHT22;41687;-33.234;-60.334;2023-05-07T03:46:21;15.40;99.90
55771;DHT22;41687;-33.234;-60.334;2023-05-07T03:48:49;15.40;99.90
55771;DHT22;41687;-33.234;-60.334;2023-05-07T03:51:17;15.40;99.90
55771;DHT22;41687;-33.234;-60.334;2023-05-07T03:53:44;15.30;99.90
55771;DHT22;41687;-33.234;-60.334;2023-05-07T03:56:12;15.30;99.90
55771;DHT22;41687;-33.234;-60.334;2023-05-07T03:58:41;15.30;99.90
55771;DHT22;41687;-33.234;-60.334;2023-05-07T04:01:10;15.20;99.90
55771;DHT22;41687;-33.234;-60.334;2023-05-07T04:03:38;15.20;99.90
55771;DHT22;41687;-33.234;-60.334;2023-05-07T04:06:07;15.20;99.90
55771;DHT22;41687;-33.234;-60.334;2023-05-07T04:08:36;15.20;99.90
55771;DHT22;41687;-33.234;-60.334;2023-05-07T04:11:05;15.20;99.90
55771;DHT22;41687;-33.234;-60.334;2023-05-07T04:13:35;15.10;99.90
55771;DHT22;41687;-33.234;-60.334;2023-05-07T04:16:06;15.10;99.90
55771;DHT22;41687;-33.234;-60.334;2023-05-07T04:18:35;15.10;99.90
55771;DHT22;41687;-33.234;-60.334;2023-05-07T04:21:03;15.10;99.90
55771;DHT22;41687;-33.234;-60.334;2023-05-07T04:23:31;15.10;99.90
55771;DHT22;41687;-33.234;-60.334;2023-05-07T04:26:02;15.10;99.90
55771;DHT22;41687;-33.234;-60.334;2023-05-07T04:28:36;15.10;99.90
55771;DHT22;41687;-33.234;-60.334;2023-05-07T04:31:04;15.10;99.90
55771;DHT22;41687;-33.234;-60.334;2023-05-07T04:33:34;15.00;99.90
55771;DHT22;41687;-33.234;-60.334;2023-05-07T04:36:03;15.00;99.90
55771;DHT22;41687;-33.234;-60.334;2023-05-07T04:38:33;15.00;99.90
55771;DHT22;41687;-33.234;-60.334;2023-05-07T04:41:04;15.00;99.90
55771;DHT22;41687;-33.234;-60.334;2023-05-07T04:43:35;14.90;99.90
55771;DHT22;41687;-33.234;-60.334;2023-05-07T04:46:03;14.90;99.90
55771;DHT22;41687;-33.234;-60.334;2023-05-07T04:48:31;14.80;99.90
55771;DHT22;41687;-33.234;-60.334;2023-05-07T04:51:00;14.80;99.90
55771;DHT22;41687;-33.234;-60.334;2023-05-07T04:53:28;14.80;99.90
55771;DHT22;41687;-33.234;-60.334;2023-05-07T04:55:58;14.80;99.90
55771;DHT22;41687;-33.234;-60.334;2023-05-07T04:58:30;14.90;99.90
55771;DHT22;41687;-33.234;-60.334;2023-05-07T05:00:59;14.80;99.90
55771;DHT22;41687;-33.234;-60.334;2023-05-07T05:03:26;14.80;99.90
55771;DHT22;41687;-33.234;-60.334;2023-05-07T05:05:55;14.80;99.90
55771;DHT22;41687;-33.234;-60.334;2023-05-07T05:08:23;14.90;99.90
55771;DHT22;41687;-33.234;-60.334;2023-05-07T05:10:51;14.80;99.90
55771;DHT22;41687;-33.234;-60.334;2023-05-07T05:13:19;14.80;99.90
55771;DHT22;41687;-33.234;-60.334;2023-05-07T05:15:47;14.70;99.90
55771;DHT22;41687;-33.234;-60.334;2023-05-07T05:18:15;14.80;99.90
55771;DHT22;41687;-33.234;-60.334;2023-05-07T05:20:43;14.80;99.90
55771;DHT22;41687;-33.234;-60.334;2023-05-07T05:23:11;14.80;99.90
55771;DHT22;41687;-33.234;-60.334;2023-05-07T05:25:40;14.70;99.90
55771;DHT22;41687;-33.234;-60.334;2023-05-07T05:28:10;14.70;99.90
55771;DHT22;41687;-33.234;-60.334;2023-05-07T05:30:39;14.70;99.90
55771;DHT22;41687;-33.234;-60.334;2023-05-07T05:33:07;14.70;99.90
55771;DHT22;41687;-33.234;-60.334;2023-05-07T05:35:35;14.60;99.90
55771;DHT22;41687;-33.234;-60.334;2023-05-07T05:38:05;14.60;99.90
55771;DHT22;41687;-33.234;-60.334;2023-05-07T05:40:34;14.60;99.90
55771;DHT22;41687;-33.234;-60.334;2023-05-07T05:43:01;14.60;99.90
55771;DHT22;41687;-33.234;-60.334;2023-05-07T05:45:30;14.50;99.90
55771;DHT22;41687;-33.234;-60.334;2023-05-07T05:47:57;14.50;99.90
55771;DHT22;41687;-33.234;-60.334;2023-05-07T05:50:25;14.50;99.90
55771;DHT22;41687;-33.234;-60.334;2023-05-07T05:52:54;14.40;99.90
55771;DHT22;41687;-33.234;-60.334;2023-05-07T05:55:23;14.40;99.90
55771;DHT22;41687;-33.234;-60.334;2023-05-07T05:57:50;14.40;99.90
55771;DHT22;41687;-33.234;-60.334;2023-05-07T06:00:19;14.30;99.90
55771;DHT22;41687;-33.234;-60.334;2023-05-07T06:02:56;14.40;99.90
55771;DHT22;41687;-33.234;-60.334;2023-05-07T06:05:25;14.40;99.90
55771;DHT22;41687;-33.234;-60.334;2023-05-07T06:07:55;14.40;99.90
55771;DHT22;41687;-33.234;-60.334;2023-05-07T06:10:23;14.40;99.90
55771;DHT22;41687;-33.234;-60.334;2023-05-07T06:12:51;14.30;99.90
55771;DHT22;41687;-33.234;-60.334;2023-05-07T06:15:18;14.30;99.90
55771;DHT22;41687;-33.234;-60.334;2023-05-07T06:17:46;14.30;99.90
55771;DHT22;41687;-33.234;-60.334;2023-05-07T06:20:14;14.30;99.90
55771;DHT22;41687;-33.234;-60.334;2023-05-07T06:22:42;14.30;99.90
55771;DHT22;41687;-33.234;-60.334;2023-05-07T06:25:11;14.20;99.90
55771;DHT22;41687;-33.234;-60.334;2023-05-07T06:27:43;14.20;99.90
55771;DHT22;41687;-33.234;-60.334;2023-05-07T06:30:11;14.10;99.90
55771;DHT22;41687;-33.234;-60.334;2023-05-07T06:32:39;14.10;99.90
55771;DHT22;41687;-33.234;-60.334;2023-05-07T06:35:09;14.10;99.90
55771;DHT22;41687;-33.234;-60.334;2023-05-07T06:37:38;14.10;99.90
55771;DHT22;41687;-33.234;-60.334;2023-05-07T06:40:14;14.10;99.90
55771;DHT22;41687;-33.234;-60.334;2023-05-07T06:42:43;14.10;99.90
55771;DHT22;41687;-33.234;-60.334;2023-05-07T06:45:23;14.00;99.90
55771;DHT22;41687;-33.234;-60.334;2023-05-07T06:47:54;14.00;99.90
55771;DHT22;41687;-33.234;-60.334;2023-05-07T06:50:22;14.00;99.90
55771;DHT22;41687;-33.234;-60.334;2023-05-07T06:52:54;14.00;99.90
55771;DHT22;41687;-33.234;-60.334;2023-05-07T06:55:22;14.00;99.90
55771;DHT22;41687;-33.234;-60.334;2023-05-07T06:57:49;13.90;99.90
55771;DHT22;41687;-33.234;-60.334;2023-05-07T07:00:19;14.00;99.90
55771;DHT22;41687;-33.234;-60.334;2023-05-07T07:02:52;14.00;99.90
55771;DHT22;41687;-33.234;-60.334;2023-05-07T07:05:24;13.90;99.90
55771;DHT22;41687;-33.234;-60.334;2023-05-07T07:07:52;13.90;99.90
55771;DHT22;41687;-33.234;-60.334;2023-05-07T07:10:23;13.90;99.90
55771;DHT22;41687;-33.234;-60.334;2023-05-07T07:12:52;13.90;99.90
55771;DHT22;41687;-33.234;-60.334;2023-05-07T07:15:20;13.90;99.90
55771;DHT22;41687;-33.234;-60.334;2023-05-07T07:17:49;13.90;99.90
55771;DHT22;41687;-33.234;-60.334;2023-05-07T07:20:17;13.80;99.90
55771;DHT22;41687;-33.234;-60.334;2023-05-07T07:22:45;13.80;99.90
55771;DHT22;41687;-33.234;-60.334;2023-05-07T07:25:13;13.80;99.90
55771;DHT22;41687;-33.234;-60.334;2023-05-07T07:27:41;13.80;99.90
55771;DHT22;41687;-33.234;-60.334;2023-05-07T07:30:09;13.80;99.90
55771;DHT22;41687;-33.234;-60.334;2023-05-07T07:32:40;13.80;99.90
55771;DHT22;41687;-33.234;-60.334;2023-05-07T07:35:09;13.70;99.90
55771;DHT22;41687;-33.234;-60.334;2023-05-07T07:37:37;13.80;99.90
55771;DHT22;41687;-33.234;-60.334;2023-05-07T07:40:05;13.70;99.90
55771;DHT22;41687;-33.234;-60.334;2023-05-07T07:42:34;13.70;99.90
55771;DHT22;41687;-33.234;-60.334;2023-05-07T07:45:02;13.70;99.90
55771;DHT22;41687;-33.234;-60.334;2023-05-07T07:47:33;13.60;99.90
55771;DHT22;41687;-33.234;-60.334;2023-05-07T07:50:01;13.60;99.90
55771;DHT22;41687;-33.234;-60.334;2023-05-07T07:52:28;13.60;99.90
55771;DHT22;41687;-33.234;-60.334;2023-05-07T07:54:57;13.60;99.90
55771;DHT22;41687;-33.234;-60.334;2023-05-07T07:57:25;13.60;99.90
55771;DHT22;41687;-33.234;-60.334;2023-05-07T07:59:52;13.60;99.90
55771;DHT22;41687;-33.234;-60.334;2023-05-07T08:02:20;13.60;99.90
55771;DHT22;41687;-33.234;-60.334;2023-05-07T08:04:50;13.50;99.90
55771;DHT22;41687;-33.234;-60.334;2023-05-07T08:07:18;13.50;99.90
55771;DHT22;41687;-33.234;-60.334;2023-05-07T08:09:49;13.50;99.90
55771;DHT22;41687;-33.234;-60.334;2023-05-07T08:12:18;13.40;99.90
55771;DHT22;41687;-33.234;-60.334;2023-05-07T08:14:46;13.40;99.90
55771;DHT22;41687;-33.234;-60.334;2023-05-07T08:17:13;13.30;99.90
55771;DHT22;41687;-33.234;-60.334;2023-05-07T08:19:43;13.30;99.90
55771;DHT22;41687;-33.234;-60.334;2023-05-07T08:22:13;13.30;99.90
55771;DHT22;41687;-33.234;-60.334;2023-05-07T08:24:42;13.30;99.90
55771;DHT22;41687;-33.234;-60.334;2023-05-07T08:27:11;13.30;99.90
55771;DHT22;41687;-33.234;-60.334;2023-05-07T08:29:41;13.30;99.90
55771;DHT22;41687;-33.234;-60.334;2023-05-07T08:32:09;13.30;99.90
55771;DHT22;41687;-33.234;-60.334;2023-05-07T08:34:37;13.20;99.90
55771;DHT22;41687;-33.234;-60.334;2023-05-07T08:37:06;13.20;99.90
55771;DHT22;41687;-33.234;-60.334;2023-05-07T08:39:34;13.20;99.90
55771;DHT22;41687;-33.234;-60.334;2023-05-07T08:42:04;13.20;99.90
55771;DHT22;41687;-33.234;-60.334;2023-05-07T08:44:34;13.20;99.90
55771;DHT22;41687;-33.234;-60.334;2023-05-07T08:47:03;13.20;99.90
55771;DHT22;41687;-33.234;-60.334;2023-05-07T08:49:34;13.20;99.90
55771;DHT22;41687;-33.234;-60.334;2023-05-07T08:52:02;13.20;99.90
55771;DHT22;41687;-33.234;-60.334;2023-05-07T08:54:31;13.20;99.90
55771;DHT22;41687;-33.234;-60.334;2023-05-07T08:56:59;13.10;99.90
55771;DHT22;41687;-33.234;-60.334;2023-05-07T08:59:28;13.10;99.90
55771;DHT22;41687;-33.234;-60.334;2023-05-07T09:01:55;13.10;99.90
55771;DHT22;41687;-33.234;-60.334;2023-05-07T09:04:23;13.10;99.90
55771;DHT22;41687;-33.234;-60.334;2023-05-07T09:06:50;13.00;99.90
55771;DHT22;41687;-33.234;-60.334;2023-05-07T09:09:22;13.00;99.90
55771;DHT22;41687;-33.234;-60.334;2023-05-07T09:11:59;13.00;99.90
55771;DHT22;41687;-33.234;-60.334;2023-05-07T09:14:28;13.00;99.90
55771;DHT22;41687;-33.234;-60.334;2023-05-07T09:16:58;13.00;99.90
55771;DHT22;41687;-33.234;-60.334;2023-05-07T09:19:26;13.00;99.90
55771;DHT22;41687;-33.234;-60.334;2023-05-07T09:22:03;13.00;99.90
55771;DHT22;41687;-33.234;-60.334;2023-05-07T09:24:47;13.00;99.90
55771;DHT22;41687;-33.234;-60.334;2023-05-07T09:27:18;12.90;99.90
55771;DHT22;41687;-33.234;-60.334;2023-05-07T09:29:46;12.90;99.90
55771;DHT22;41687;-33.234;-60.334;2023-05-07T09:32:15;12.90;99.90
55771;DHT22;41687;-33.234;-60.334;2023-05-07T09:34:43;12.90;99.90
55771;DHT22;41687;-33.234;-60.334;2023-05-07T09:37:13;12.90;99.90
55771;DHT22;41687;-33.234;-60.334;2023-05-07T09:39:45;13.00;99.90
55771;DHT22;41687;-33.234;-60.334;2023-05-07T09:42:15;12.90;99.90
55771;DHT22;41687;-33.234;-60.334;2023-05-07T09:44:44;13.00;99.90
55771;DHT22;41687;-33.234;-60.334;2023-05-07T09:47:19;13.00;99.90
55771;DHT22;41687;-33.234;-60.334;2023-05-07T09:49:54;12.90;99.90
55771;DHT22;41687;-33.234;-60.334;2023-05-07T09:52:24;12.90;99.90
55771;DHT22;41687;-33.234;-60.334;2023-05-07T09:54:58;12.90;99.90
55771;DHT22;41687;-33.234;-60.334;2023-05-07T09:57:29;12.90;99.90
55771;DHT22;41687;-33.234;-60.334;2023-05-07T10:00:03;12.90;99.90
55771;DHT22;41687;-33.234;-60.334;2023-05-07T10:02:48;12.90;99.90
55771;DHT22;41687;-33.234;-60.334;2023-05-07T10:05:19;13.00;99.90
55771;DHT22;41687;-33.234;-60.334;2023-05-07T10:07:51;13.00;99.90
55771;DHT22;41687;-33.234;-60.334;2023-05-07T10:10:21;13.00;99.90
55771;DHT22;41687;-33.234;-60.334;2023-05-07T10:12:50;13.00;99.90
55771;DHT22;41687;-33.234;-60.334;2023-05-07T10:15:29;13.00;99.90
55771;DHT22;41687;-33.234;-60.334;2023-05-07T10:17:59;13.00;99.90
55771;DHT22;41687;-33.234;-60.334;2023-05-07T10:20:27;12.90;99.90
55771;DHT22;41687;-33.234;-60.334;2023-05-07T10:22:56;12.90;99.90
55771;DHT22;41687;-33.234;-60.334;2023-05-07T10:25:33;13.00;99.90
55771;DHT22;41687;-33.234;-60.334;2023-05-07T10:28:12;12.90;99.90
55771;DHT22;41687;-33.234;-60.334;2023-05-07T10:30:58;12.90;99.90
55771;DHT22;41687;-33.234;-60.334;2023-05-07T10:33:38;12.90;99.90
55771;DHT22;41687;-33.234;-60.334;2023-05-07T10:36:08;12.90;99.90
55771;DHT22;41687;-33.234;-60.334;2023-05-07T10:38:36;12.80;99.90
55771;DHT22;41687;-33.234;-60.334;2023-05-07T10:41:05;12.90;99.90
55771;DHT22;41687;-33.234;-60.334;2023-05-07T10:43:42;12.80;99.90
55771;DHT22;41687;-33.234;-60.334;2023-05-07T10:46:19;12.90;99.90
55771;DHT22;41687;-33.234;-60.334;2023-05-07T10:52:26;12.90;99.90
55771;DHT22;41687;-33.234;-60.334;2023-05-07T10:55:23;13.10;99.90
55771;DHT22;41687;-33.234;-60.334;2023-05-07T10:58:26;13.10;99.90
55771;DHT22;41687;-33.234;-60.334;2023-05-07T11:01:02;13.10;99.90
55771;DHT22;41687;-33.234;-60.334;2023-05-07T11:04:14;13.20;99.90
55771;DHT22;41687;-33.234;-60.334;2023-05-07T11:15:12;16.60;98.70
55771;DHT22;41687;-33.234;-60.334;2023-05-07T11:17:59;17.70;96.70
55771;DHT22;41687;-33.234;-60.334;2023-05-07T11:20:46;19.00;91.70
55771;DHT22;41687;-33.234;-60.334;2023-05-07T11:26:16;21.00;88.70
55771;DHT22;41687;-33.234;-60.334;2023-05-07T11:28:45;21.90;83.70
55771;DHT22;41687;-33.234;-60.334;2023-05-07T11:31:13;22.70;81.70
55771;DHT22;41687;-33.234;-60.334;2023-05-07T11:33:41;23.30;79.30
55771;DHT22;41687;-33.234;-60.334;2023-05-07T11:36:14;24.00;77.70
55771;DHT22;41687;-33.234;-60.334;2023-05-07T11:38:47;24.60;75.00
55771;DHT22;41687;-33.234;-60.334;2023-05-07T11:41:16;25.00;74.40
55771;DHT22;41687;-33.234;-60.334;2023-05-07T11:43:57;25.50;71.40
55771;DHT22;41687;-33.234;-60.334;2023-05-07T11:46:26;26.00;63.70
55771;DHT22;41687;-33.234;-60.334;2023-05-07T11:48:54;26.30;69.90
55771;DHT22;41687;-33.234;-60.334;2023-05-07T11:51:24;26.50;70.00
55771;DHT22;41687;-33.234;-60.334;2023-05-07T11:53:54;26.60;66.60
55771;DHT22;41687;-33.234;-60.334;2023-05-07T11:56:21;26.70;68.70
55771;DHT22;41687;-33.234;-60.334;2023-05-07T11:58:49;26.80;67.50
55771;DHT22;41687;-33.234;-60.334;2023-05-07T12:01:17;26.80;67.50
55771;DHT22;41687;-33.234;-60.334;2023-05-07T12:03:46;26.60;66.40
55771;DHT22;41687;-33.234;-60.334;2023-05-07T12:06:15;26.50;65.90
55771;DHT22;41687;-33.234;-60.334;2023-05-07T12:08:43;26.20;65.10
55771;DHT22;41687;-33.234;-60.334;2023-05-07T12:11:31;26.00;67.80
55771;DHT22;41687;-33.234;-60.334;2023-05-07T12:13:59;25.60;65.20
55771;DHT22;41687;-33.234;-60.334;2023-05-07T12:16:27;25.30;68.30
55771;DHT22;41687;-33.234;-60.334;2023-05-07T12:18:56;25.00;68.70
55771;DHT22;41687;-33.234;-60.334;2023-05-07T12:21:25;24.70;69.40
55771;DHT22;41687;-33.234;-60.334;2023-05-07T12:23:53;24.50;69.20
55771;DHT22;41687;-33.234;-60.334;2023-05-07T12:26:20;24.40;70.00
55771;DHT22;41687;-33.234;-60.334;2023-05-07T12:28:50;24.20;70.90
55771;DHT22;41687;-33.234;-60.334;2023-05-07T12:31:17;24.10;71.10
55771;DHT22;41687;-33.234;-60.334;2023-05-07T12:33:45;24.10;71.40
55771;DHT22;41687;-33.234;-60.334;2023-05-07T12:36:13;23.90;71.30
55771;DHT22;41687;-33.234;-60.334;2023-05-07T12:38:41;24.00;72.20
55771;DHT22;41687;-33.234;-60.334;2023-05-07T12:41:10;23.90;72.50
55771;DHT22;41687;-33.234;-60.334;2023-05-07T12:43:39;23.90;72.40
55771;DHT22;41687;-33.234;-60.334;2023-05-07T12:46:07;23.90;72.50
55771;DHT22;41687;-33.234;-60.334;2023-05-07T12:48:43;23.80;71.90
55771;DHT22;41687;-33.234;-60.334;2023-05-07T12:51:11;23.80;70.70
55771;DHT22;41687;-33.234;-60.334;2023-05-07T12:53:40;23.70;72.70
55771;DHT22;41687;-33.234;-60.334;2023-05-07T12:56:09;23.80;72.60
55771;DHT22;41687;-33.234;-60.334;2023-05-07T12:58:37;23.70;72.70
55771;DHT22;41687;-33.234;-60.334;2023-05-07T13:01:08;23.50;73.10
55771;DHT22;41687;-33.234;-60.334;2023-05-07T13:03:37;23.20;72.80
55771;DHT22;41687;-33.234;-60.334;2023-05-07T13:06:10;23.00;74.30
55771;DHT22;41687;-33.234;-60.334;2023-05-07T13:08:41;22.80;73.10
55771;DHT22;41687;-33.234;-60.334;2023-05-07T13:11:12;22.60;76.00
55771;DHT22;41687;-33.234;-60.334;2023-05-07T13:13:40;22.40;76.00
55771;DHT22;41687;-33.234;-60.334;2023-05-07T13:16:10;22.30;76.30
55771;DHT22;41687;-33.234;-60.334;2023-05-07T13:18:39;22.20;76.80
55771;DHT22;41687;-33.234;-60.334;2023-05-07T13:21:07;22.00;76.60
55771;DHT22;41687;-33.234;-60.334;2023-05-07T13:23:34;21.90;78.10
55771;DHT22;41687;-33.234;-60.334;2023-05-07T13:26:02;21.80;78.50
55771;DHT22;41687;-33.234;-60.334;2023-05-07T13:28:31;21.80;78.40
55771;DHT22;41687;-33.234;-60.334;2023-05-07T13:30:59;21.80;77.90
55771;DHT22;41687;-33.234;-60.334;2023-05-07T13:33:26;21.70;77.40
55771;DHT22;41687;-33.234;-60.334;2023-05-07T13:35:54;21.70;78.20
55771;DHT22;41687;-33.234;-60.334;2023-05-07T13:38:23;21.60;78.60
55771;DHT22;41687;-33.234;-60.334;2023-05-07T13:40:51;21.60;80.00
55771;DHT22;41687;-33.234;-60.334;2023-05-07T13:43:18;21.60;78.80
55771;DHT22;41687;-33.234;-60.334;2023-05-07T13:45:47;21.70;80.30
55771;DHT22;41687;-33.234;-60.334;2023-05-07T13:48:14;21.60;79.10
55771;DHT22;41687;-33.234;-60.334;2023-05-07T13:50:42;21.60;79.60
55771;DHT22;41687;-33.234;-60.334;2023-05-07T13:53:09;21.70;80.50
55771;DHT22;41687;-33.234;-60.334;2023-05-07T13:55:37;21.70;80.40
55771;DHT22;41687;-33.234;-60.334;2023-05-07T13:58:04;21.70;80.60
55771;DHT22;41687;-33.234;-60.334;2023-05-07T14:00:32;21.60;80.00
55771;DHT22;41687;-33.234;-60.334;2023-05-07T14:02:59;21.60;79.80
55771;DHT22;41687;-33.234;-60.334;2023-05-07T14:05:27;21.50;80.10
55771;DHT22;41687;-33.234;-60.334;2023-05-07T14:07:57;21.50;80.00
55771;DHT22;41687;-33.234;-60.334;2023-05-07T14:10:25;21.40;79.50
55771;DHT22;41687;-33.234;-60.334;2023-05-07T14:12:52;21.40;80.70
55771;DHT22;41687;-33.234;-60.334;2023-05-07T14:15:20;21.40;81.10
55771;DHT22;41687;-33.234;-60.334;2023-05-07T14:17:48;21.30;80.20
55771;DHT22;41687;-33.234;-60.334;2023-05-07T14:20:15;21.30;80.70
55771;DHT22;41687;-33.234;-60.334;2023-05-07T14:22:43;21.30;81.40
55771;DHT22;41687;-33.234;-60.334;2023-05-07T14:25:11;21.30;81.90
55771;DHT22;41687;-33.234;-60.334;2023-05-07T14:27:42;21.30;81.50
55771;DHT22;41687;-33.234;-60.334;2023-05-07T14:30:10;21.40;81.50
55771;DHT22;41687;-33.234;-60.334;2023-05-07T14:32:38;21.50;81.20
55771;DHT22;41687;-33.234;-60.334;2023-05-07T14:35:06;21.50;80.60
55771;DHT22;41687;-33.234;-60.334;2023-05-07T14:37:33;21.40;81.00
55771;DHT22;41687;-33.234;-60.334;2023-05-07T14:40:01;21.40;80.90
55771;DHT22;41687;-33.234;-60.334;2023-05-07T14:42:29;21.30;80.20
55771;DHT22;41687;-33.234;-60.334;2023-05-07T14:44:57;21.30;81.40
55771;DHT22;41687;-33.234;-60.334;2023-05-07T14:47:24;21.10;80.60
55771;DHT22;41687;-33.234;-60.334;2023-05-07T14:49:52;21.10;81.10
55771;DHT22;41687;-33.234;-60.334;2023-05-07T14:52:19;21.10;80.30
55771;DHT22;41687;-33.234;-60.334;2023-05-07T14:54:47;20.80;80.50
55771;DHT22;41687;-33.234;-60.334;2023-05-07T14:57:15;20.80;81.00
55771;DHT22;41687;-33.234;-60.334;2023-05-07T14:59:43;20.70;81.20
55771;DHT22;41687;-33.234;-60.334;2023-05-07T15:02:11;20.80;79.80
55771;DHT22;41687;-33.234;-60.334;2023-05-07T15:04:39;20.70;79.80
55771;DHT22;41687;-33.234;-60.334;2023-05-07T15:07:16;20.70;80.30
55771;DHT22;41687;-33.234;-60.334;2023-05-07T15:09:44;20.50;79.90
55771;DHT22;41687;-33.234;-60.334;2023-05-07T15:12:12;20.40;79.80
55771;DHT22;41687;-33.234;-60.334;2023-05-07T15:14:40;20.30;79.50
55771;DHT22;41687;-33.234;-60.334;2023-05-07T15:17:08;20.40;80.00